Airfield :
LOGIN :

Register | Disclaimer

   EN    FR    IT 

 










Legend :    VFR   Marginal VFR   IFR   Intensive IFR   Very Intensive IFR
Visi :
Ceiling :
>= 8 km
>= 3000ft
5 to 8 km
1000 to 3000 ft
1500m to 5 km
500 to 1000 ft
800 to 1500m
200 to 500 ft
< 800m
< 200 ft
Symbols :   Thunderstorms  Fog  Heavy snow  Heavy precipitations  Wind > 20 kt
SIGMETs :     Misc.  Thunderstorms  Icing  Turbulence  Mountain Waves  Volcanic Ashes






- Airport Elevation : 277 ft
- IATA code : JER


EGJJ - Jersey

CURRENT METAR :
  • 170650Z 02006KT 350V050 9999 -SHRA FEW014 SCT019 07/05 Q1008

EXPIRED METARs :
  • 170620Z 15003KT 9999 FEW029 SCT037 08/05 Q1008
  • 170550Z VRB02KT 9999 FEW018 SCT021 08/05 Q1008
  • 170520Z AUTO 19004KT 9999 HZ NCD 07/05 Q1008
  • 170450Z AUTO 18005KT 9999 NCD 07/05 Q1008
  • 170420Z AUTO 20006KT 9999 NCD 07/05 Q1008

TAF TAF EGJJ
Valid from the 17 at 06:00 until the 17 at 15:00 UTC


170458Z 1706/1715 16005KT 9999 FEW015 BKN035
PROB40
TEMPO 1706/1715 8000 SHRA BKN015
PROB30
TEMPO 1708/1712 BKN010
ATIS : +44 1534 498 073



MET'MAP, your aeronautical weather chart ! - Copyright ORBIFLY December 2007 - Disclaimer

ORBIFLY MET'MAP TEAM :

Programming & Development : Alexandra Zaïnal
Concept & Development : Baudouin d'Aumeries
Co-Development & Prog : Marc-Olivier Méhu
Technical & hardware support : Manuel Goepfert

Contact : metmap@orbifly.com




SOURCES & CREDITS :

   NOAA